sensor_id;sensor_type;location;lat;lon;timestamp;temperature;humidity
65582;DHT22;52231;40.090;18.348;2023-12-07T00:01:16;9.20;90.90
65582;DHT22;52231;40.090;18.348;2023-12-07T00:03:44;9.00;90.80
65582;DHT22;52231;40.090;18.348;2023-12-07T00:06:12;8.90;90.90
65582;DHT22;52231;40.090;18.348;2023-12-07T00:08:40;8.90;91.00
65582;DHT22;52231;40.090;18.348;2023-12-07T00:11:08;9.00;91.00
65582;DHT22;52231;40.090;18.348;2023-12-07T00:13:36;9.00;91.10
65582;DHT22;52231;40.090;18.348;2023-12-07T00:16:04;8.80;91.00
65582;DHT22;52231;40.090;18.348;2023-12-07T00:18:32;9.00;91.20
65582;DHT22;52231;40.090;18.348;2023-12-07T00:21:01;8.90;91.20
65582;DHT22;52231;40.090;18.348;2023-12-07T00:23:29;8.90;91.30
65582;DHT22;52231;40.090;18.348;2023-12-07T00:25:57;8.90;91.40
65582;DHT22;52231;40.090;18.348;2023-12-07T00:28:25;8.90;91.50
65582;DHT22;52231;40.090;18.348;2023-12-07T00:30:54;8.90;91.60
65582;DHT22;52231;40.090;18.348;2023-12-07T00:33:22;9.00;91.70
65582;DHT22;52231;40.090;18.348;2023-12-07T00:35:50;8.90;91.70
65582;DHT22;52231;40.090;18.348;2023-12-07T00:38:18;8.90;91.80
65582;DHT22;52231;40.090;18.348;2023-12-07T00:40:48;8.80;91.80
65582;DHT22;52231;40.090;18.348;2023-12-07T00:43:16;8.90;91.90
65582;DHT22;52231;40.090;18.348;2023-12-07T00:45:45;8.90;91.90
65582;DHT22;52231;40.090;18.348;2023-12-07T00:48:13;8.90;92.00
65582;DHT22;52231;40.090;18.348;2023-12-07T00:50:41;9.00;92.00
65582;DHT22;52231;40.090;18.348;2023-12-07T00:53:09;9.10;92.10
65582;DHT22;52231;40.090;18.348;2023-12-07T00:55:37;9.10;92.10
65582;DHT22;52231;40.090;18.348;2023-12-07T00:58:06;9.10;92.10
65582;DHT22;52231;40.090;18.348;2023-12-07T01:00:34;9.20;92.30
65582;DHT22;52231;40.090;18.348;2023-12-07T01:03:02;9.10;92.20
65582;DHT22;52231;40.090;18.348;2023-12-07T01:05:30;9.10;92.30
65582;DHT22;52231;40.090;18.348;2023-12-07T01:07:58;9.30;92.40
65582;DHT22;52231;40.090;18.348;2023-12-07T01:10:27;9.20;92.30
65582;DHT22;52231;40.090;18.348;2023-12-07T01:12:55;9.20;92.30
65582;DHT22;52231;40.090;18.348;2023-12-07T01:15:23;9.30;92.40
65582;DHT22;52231;40.090;18.348;2023-12-07T01:17:51;9.30;92.40
65582;DHT22;52231;40.090;18.348;2023-12-07T01:20:21;9.30;92.40
65582;DHT22;52231;40.090;18.348;2023-12-07T01:22:49;9.30;92.50
65582;DHT22;52231;40.090;18.348;2023-12-07T01:25:17;9.10;92.40
65582;DHT22;52231;40.090;18.348;2023-12-07T01:27:49;9.00;92.50
65582;DHT22;52231;40.090;18.348;2023-12-07T01:30:17;8.80;92.50
65582;DHT22;52231;40.090;18.348;2023-12-07T01:32:46;8.80;92.60
65582;DHT22;52231;40.090;18.348;2023-12-07T01:35:14;8.70;92.60
65582;DHT22;52231;40.090;18.348;2023-12-07T01:37:42;8.70;92.60
65582;DHT22;52231;40.090;18.348;2023-12-07T01:40:10;8.60;92.60
65582;DHT22;52231;40.090;18.348;2023-12-07T01:42:38;8.60;92.60
65582;DHT22;52231;40.090;18.348;2023-12-07T01:45:07;8.70;92.70
65582;DHT22;52231;40.090;18.348;2023-12-07T01:47:36;8.70;92.70
65582;DHT22;52231;40.090;18.348;2023-12-07T01:50:05;8.70;92.70
65582;DHT22;52231;40.090;18.348;2023-12-07T01:52:38;8.80;92.70
65582;DHT22;52231;40.090;18.348;2023-12-07T01:55:07;8.70;92.70
65582;DHT22;52231;40.090;18.348;2023-12-07T01:57:37;8.80;92.80
65582;DHT22;52231;40.090;18.348;2023-12-07T02:00:06;8.80;92.80
65582;DHT22;52231;40.090;18.348;2023-12-07T02:02:35;8.80;92.80
65582;DHT22;52231;40.090;18.348;2023-12-07T02:05:04;8.70;92.80
65582;DHT22;52231;40.090;18.348;2023-12-07T02:07:34;8.90;92.90
65582;DHT22;52231;40.090;18.348;2023-12-07T02:10:21;8.80;92.90
65582;DHT22;52231;40.090;18.348;2023-12-07T02:12:49;8.80;92.90
65582;DHT22;52231;40.090;18.348;2023-12-07T02:15:17;8.80;92.90
65582;DHT22;52231;40.090;18.348;2023-12-07T02:23:25;8.80;93.00
65582;DHT22;52231;40.090;18.348;2023-12-07T02:26:03;8.80;93.10
65582;DHT22;52231;40.090;18.348;2023-12-07T02:28:31;8.70;93.10
65582;DHT22;52231;40.090;18.348;2023-12-07T02:31:00;8.80;93.10
65582;DHT22;52231;40.090;18.348;2023-12-07T02:33:28;8.70;93.10
65582;DHT22;52231;40.090;18.348;2023-12-07T02:35:57;8.80;93.10
65582;DHT22;52231;40.090;18.348;2023-12-07T02:38:26;8.70;93.10
65582;DHT22;52231;40.090;18.348;2023-12-07T02:40:59;8.80;93.20
65582;DHT22;52231;40.090;18.348;2023-12-07T02:43:29;8.80;93.20
65582;DHT22;52231;40.090;18.348;2023-12-07T02:45:57;8.80;93.20
65582;DHT22;52231;40.090;18.348;2023-12-07T02:48:26;8.80;93.20
65582;DHT22;52231;40.090;18.348;2023-12-07T02:50:54;8.80;93.30
65582;DHT22;52231;40.090;18.348;2023-12-07T02:53:22;8.80;93.30
65582;DHT22;52231;40.090;18.348;2023-12-07T02:55:50;8.70;93.30
65582;DHT22;52231;40.090;18.348;2023-12-07T02:58:18;8.80;93.40
65582;DHT22;52231;40.090;18.348;2023-12-07T03:00:46;8.70;93.30
65582;DHT22;52231;40.090;18.348;2023-12-07T03:03:15;8.80;93.40
65582;DHT22;52231;40.090;18.348;2023-12-07T03:05:43;8.80;93.40
65582;DHT22;52231;40.090;18.348;2023-12-07T03:08:11;8.60;93.30
65582;DHT22;52231;40.090;18.348;2023-12-07T03:10:39;8.60;93.40
65582;DHT22;52231;40.090;18.348;2023-12-07T03:13:07;8.70;93.40
65582;DHT22;52231;40.090;18.348;2023-12-07T03:15:35;8.70;93.40
65582;DHT22;52231;40.090;18.348;2023-12-07T03:18:03;8.70;93.40
65582;DHT22;52231;40.090;18.348;2023-12-07T03:20:32;8.70;93.40
65582;DHT22;52231;40.090;18.348;2023-12-07T03:23:00;8.60;93.40
65582;DHT22;52231;40.090;18.348;2023-12-07T03:25:28;8.70;93.40
65582;DHT22;52231;40.090;18.348;2023-12-07T03:27:56;8.60;93.40
65582;DHT22;52231;40.090;18.348;2023-12-07T03:30:24;8.60;93.40
65582;DHT22;52231;40.090;18.348;2023-12-07T03:32:52;8.70;93.50
65582;DHT22;52231;40.090;18.348;2023-12-07T03:35:20;8.60;93.50
65582;DHT22;52231;40.090;18.348;2023-12-07T03:37:48;8.60;93.50
65582;DHT22;52231;40.090;18.348;2023-12-07T03:40:16;8.60;93.60
65582;DHT22;52231;40.090;18.348;2023-12-07T03:42:45;8.50;93.60
65582;DHT22;52231;40.090;18.348;2023-12-07T03:45:13;8.30;93.50
65582;DHT22;52231;40.090;18.348;2023-12-07T03:47:41;8.30;93.50
65582;DHT22;52231;40.090;18.348;2023-12-07T03:50:09;8.30;93.50
65582;DHT22;52231;40.090;18.348;2023-12-07T03:52:37;8.30;93.60
65582;DHT22;52231;40.090;18.348;2023-12-07T03:55:06;8.20;93.60
65582;DHT22;52231;40.090;18.348;2023-12-07T03:57:34;8.30;93.60
65582;DHT22;52231;40.090;18.348;2023-12-07T04:00:02;8.30;93.70
65582;DHT22;52231;40.090;18.348;2023-12-07T04:02:32;8.30;93.70
65582;DHT22;52231;40.090;18.348;2023-12-07T04:05:02;8.20;93.60
65582;DHT22;52231;40.090;18.348;2023-12-07T04:07:30;8.20;93.70
65582;DHT22;52231;40.090;18.348;2023-12-07T04:09:58;8.10;93.70
65582;DHT22;52231;40.090;18.348;2023-12-07T04:12:26;8.00;93.60
65582;DHT22;52231;40.090;18.348;2023-12-07T04:14:54;8.00;93.70
65582;DHT22;52231;40.090;18.348;2023-12-07T04:17:22;7.90;93.70
65582;DHT22;52231;40.090;18.348;2023-12-07T04:19:51;7.80;93.60
65582;DHT22;52231;40.090;18.348;2023-12-07T04:22:19;7.90;93.70
65582;DHT22;52231;40.090;18.348;2023-12-07T04:24:47;7.90;93.80
65582;DHT22;52231;40.090;18.348;2023-12-07T04:27:15;7.70;93.70
65582;DHT22;52231;40.090;18.348;2023-12-07T04:29:43;7.80;93.80
65582;DHT22;52231;40.090;18.348;2023-12-07T04:32:12;7.80;93.70
65582;DHT22;52231;40.090;18.348;2023-12-07T04:34:40;7.80;93.70
65582;DHT22;52231;40.090;18.348;2023-12-07T04:37:08;7.90;93.70
65582;DHT22;52231;40.090;18.348;2023-12-07T04:39:36;7.90;93.70
65582;DHT22;52231;40.090;18.348;2023-12-07T04:42:04;7.90;93.70
65582;DHT22;52231;40.090;18.348;2023-12-07T04:44:32;8.00;93.80
65582;DHT22;52231;40.090;18.348;2023-12-07T04:47:00;7.90;93.80
65582;DHT22;52231;40.090;18.348;2023-12-07T04:49:29;7.80;93.80
65582;DHT22;52231;40.090;18.348;2023-12-07T04:51:57;7.80;93.90
65582;DHT22;52231;40.090;18.348;2023-12-07T04:54:25;7.70;93.80
65582;DHT22;52231;40.090;18.348;2023-12-07T04:56:55;7.70;93.90
65582;DHT22;52231;40.090;18.348;2023-12-07T04:59:23;7.60;93.80
65582;DHT22;52231;40.090;18.348;2023-12-07T05:01:51;7.70;93.90
65582;DHT22;52231;40.090;18.348;2023-12-07T05:04:19;7.60;93.90
65582;DHT22;52231;40.090;18.348;2023-12-07T05:06:48;7.50;93.90
65582;DHT22;52231;40.090;18.348;2023-12-07T05:09:16;7.40;93.80
65582;DHT22;52231;40.090;18.348;2023-12-07T05:11:44;7.40;93.90
65582;DHT22;52231;40.090;18.348;2023-12-07T05:14:13;7.30;93.90
65582;DHT22;52231;40.090;18.348;2023-12-07T05:16:41;7.30;93.90
65582;DHT22;52231;40.090;18.348;2023-12-07T05:19:10;7.20;93.90
65582;DHT22;52231;40.090;18.348;2023-12-07T05:21:38;7.10;93.90
65582;DHT22;52231;40.090;18.348;2023-12-07T05:24:06;6.90;93.80
65582;DHT22;52231;40.090;18.348;2023-12-07T05:26:34;7.00;93.90
65582;DHT22;52231;40.090;18.348;2023-12-07T05:29:02;6.90;93.90
65582;DHT22;52231;40.090;18.348;2023-12-07T05:31:30;6.80;93.90
65582;DHT22;52231;40.090;18.348;2023-12-07T05:33:59;6.70;93.80
65582;DHT22;52231;40.090;18.348;2023-12-07T05:36:27;6.80;93.80
65582;DHT22;52231;40.090;18.348;2023-12-07T05:38:55;6.60;93.80
65582;DHT22;52231;40.090;18.348;2023-12-07T05:41:24;6.60;93.90
65582;DHT22;52231;40.090;18.348;2023-12-07T05:43:53;6.50;93.80
65582;DHT22;52231;40.090;18.348;2023-12-07T05:46:21;6.50;93.80
65582;DHT22;52231;40.090;18.348;2023-12-07T05:48:49;6.30;93.70
65582;DHT22;52231;40.090;18.348;2023-12-07T05:51:18;6.30;93.80
65582;DHT22;52231;40.090;18.348;2023-12-07T05:53:48;6.30;93.80
65582;DHT22;52231;40.090;18.348;2023-12-07T05:56:20;6.30;93.80
65582;DHT22;52231;40.090;18.348;2023-12-07T05:58:48;6.30;93.80
65582;DHT22;52231;40.090;18.348;2023-12-07T06:01:17;6.20;93.80
65582;DHT22;52231;40.090;18.348;2023-12-07T06:03:46;6.20;93.80
65582;DHT22;52231;40.090;18.348;2023-12-07T06:06:14;6.10;93.70
65582;DHT22;52231;40.090;18.348;2023-12-07T06:08:42;6.00;93.70
65582;DHT22;52231;40.090;18.348;2023-12-07T06:11:12;6.00;93.70
65582;DHT22;52231;40.090;18.348;2023-12-07T06:13:40;6.10;93.70
65582;DHT22;52231;40.090;18.348;2023-12-07T06:16:12;6.10;93.70
65582;DHT22;52231;40.090;18.348;2023-12-07T06:18:41;6.00;93.60
65582;DHT22;52231;40.090;18.348;2023-12-07T06:21:09;6.10;93.70
65582;DHT22;52231;40.090;18.348;2023-12-07T06:23:37;6.10;93.70
65582;DHT22;52231;40.090;18.348;2023-12-07T06:26:06;6.00;93.60
65582;DHT22;52231;40.090;18.348;2023-12-07T06:28:34;6.10;93.70
65582;DHT22;52231;40.090;18.348;2023-12-07T06:31:06;6.00;93.60
65582;DHT22;52231;40.090;18.348;2023-12-07T06:33:34;6.10;93.70
65582;DHT22;52231;40.090;18.348;2023-12-07T06:36:03;6.00;93.70
65582;DHT22;52231;40.090;18.348;2023-12-07T06:38:31;6.00;93.70
65582;DHT22;52231;40.090;18.348;2023-12-07T06:40:59;6.20;93.70
65582;DHT22;52231;40.090;18.348;2023-12-07T06:43:27;6.50;93.70
65582;DHT22;52231;40.090;18.348;2023-12-07T06:45:55;6.50;93.70
65582;DHT22;52231;40.090;18.348;2023-12-07T06:48:24;6.60;93.70
65582;DHT22;52231;40.090;18.348;2023-12-07T06:50:52;6.50;93.70
65582;DHT22;52231;40.090;18.348;2023-12-07T06:53:23;6.50;93.70
65582;DHT22;52231;40.090;18.348;2023-12-07T06:55:51;6.30;93.70
65582;DHT22;52231;40.090;18.348;2023-12-07T06:58:20;6.30;93.60
65582;DHT22;52231;40.090;18.348;2023-12-07T07:00:48;6.20;93.60
65582;DHT22;52231;40.090;18.348;2023-12-07T07:03:17;6.20;93.50
65582;DHT22;52231;40.090;18.348;2023-12-07T07:05:46;6.30;93.60
65582;DHT22;52231;40.090;18.348;2023-12-07T07:08:14;6.40;93.50
65582;DHT22;52231;40.090;18.348;2023-12-07T07:10:44;6.80;93.50
65582;DHT22;52231;40.090;18.348;2023-12-07T07:13:12;7.20;93.40
65582;DHT22;52231;40.090;18.348;2023-12-07T07:15:43;7.70;93.40
65582;DHT22;52231;40.090;18.348;2023-12-07T07:18:11;8.10;93.40
65582;DHT22;52231;40.090;18.348;2023-12-07T07:20:40;8.50;93.30
65582;DHT22;52231;40.090;18.348;2023-12-07T07:23:08;8.70;93.20
65582;DHT22;52231;40.090;18.348;2023-12-07T07:25:36;8.80;93.10
65582;DHT22;52231;40.090;18.348;2023-12-07T07:28:05;9.00;92.90
65582;DHT22;52231;40.090;18.348;2023-12-07T07:30:34;9.10;92.50
65582;DHT22;52231;40.090;18.348;2023-12-07T07:33:03;9.30;92.10
65582;DHT22;52231;40.090;18.348;2023-12-07T07:35:32;9.40;91.10
65582;DHT22;52231;40.090;18.348;2023-12-07T07:38:00;9.60;90.20
65582;DHT22;52231;40.090;18.348;2023-12-07T07:40:28;9.90;89.80
65582;DHT22;52231;40.090;18.348;2023-12-07T07:42:57;10.00;88.70
65582;DHT22;52231;40.090;18.348;2023-12-07T07:45:25;10.10;87.60
65582;DHT22;52231;40.090;18.348;2023-12-07T07:47:53;10.10;85.60
65582;DHT22;52231;40.090;18.348;2023-12-07T07:50:21;10.30;85.10
65582;DHT22;52231;40.090;18.348;2023-12-07T07:52:49;10.40;84.30
65582;DHT22;52231;40.090;18.348;2023-12-07T07:55:17;10.60;83.40
65582;DHT22;52231;40.090;18.348;2023-12-07T07:57:46;10.80;82.80
65582;DHT22;52231;40.090;18.348;2023-12-07T08:00:14;11.00;81.60
65582;DHT22;52231;40.090;18.348;2023-12-07T08:02:42;11.30;81.60
65582;DHT22;52231;40.090;18.348;2023-12-07T08:05:10;11.40;80.30
65582;DHT22;52231;40.090;18.348;2023-12-07T08:07:41;11.50;79.20
65582;DHT22;52231;40.090;18.348;2023-12-07T08:10:10;11.50;78.30
65582;DHT22;52231;40.090;18.348;2023-12-07T08:12:39;11.70;77.80
65582;DHT22;52231;40.090;18.348;2023-12-07T08:15:10;11.80;76.50
65582;DHT22;52231;40.090;18.348;2023-12-07T08:17:40;11.80;76.30
65582;DHT22;52231;40.090;18.348;2023-12-07T08:20:09;11.90;76.10
65582;DHT22;52231;40.090;18.348;2023-12-07T08:22:38;12.00;74.60
65582;DHT22;52231;40.090;18.348;2023-12-07T08:25:07;12.10;74.10
65582;DHT22;52231;40.090;18.348;2023-12-07T08:27:38;12.30;74.70
65582;DHT22;52231;40.090;18.348;2023-12-07T08:30:07;12.50;74.90
65582;DHT22;52231;40.090;18.348;2023-12-07T08:32:38;12.60;74.20
65582;DHT22;52231;40.090;18.348;2023-12-07T08:35:06;12.80;72.70
65582;DHT22;52231;40.090;18.348;2023-12-07T08:37:37;12.80;72.10
65582;DHT22;52231;40.090;18.348;2023-12-07T08:40:07;12.60;70.30
65582;DHT22;52231;40.090;18.348;2023-12-07T08:42:35;12.70;71.30
65582;DHT22;52231;40.090;18.348;2023-12-07T08:45:04;12.70;71.10
65582;DHT22;52231;40.090;18.348;2023-12-07T08:47:33;12.80;71.40
65582;DHT22;52231;40.090;18.348;2023-12-07T08:50:01;12.90;70.80
65582;DHT22;52231;40.090;18.348;2023-12-07T08:52:30;13.00;70.40
65582;DHT22;52231;40.090;18.348;2023-12-07T08:54:58;13.00;70.30
65582;DHT22;52231;40.090;18.348;2023-12-07T08:57:26;13.10;70.30
65582;DHT22;52231;40.090;18.348;2023-12-07T08:59:54;13.10;69.80
65582;DHT22;52231;40.090;18.348;2023-12-07T09:02:22;13.20;69.90
65582;DHT22;52231;40.090;18.348;2023-12-07T09:04:56;13.40;69.20
65582;DHT22;52231;40.090;18.348;2023-12-07T09:07:24;13.60;68.80
65582;DHT22;52231;40.090;18.348;2023-12-07T09:09:53;13.60;67.80
65582;DHT22;52231;40.090;18.348;2023-12-07T09:12:21;13.60;68.20
65582;DHT22;52231;40.090;18.348;2023-12-07T09:14:51;13.60;67.00
65582;DHT22;52231;40.090;18.348;2023-12-07T09:17:20;13.60;67.30
65582;DHT22;52231;40.090;18.348;2023-12-07T09:19:48;13.70;66.60
65582;DHT22;52231;40.090;18.348;2023-12-07T09:22:16;13.80;66.90
65582;DHT22;52231;40.090;18.348;2023-12-07T09:24:46;14.00;67.40
65582;DHT22;52231;40.090;18.348;2023-12-07T09:27:17;14.10;65.90
65582;DHT22;52231;40.090;18.348;2023-12-07T09:29:45;14.20;64.80
65582;DHT22;52231;40.090;18.348;2023-12-07T09:32:15;14.20;64.80
65582;DHT22;52231;40.090;18.348;2023-12-07T09:34:43;14.30;64.10
65582;DHT22;52231;40.090;18.348;2023-12-07T09:37:12;14.50;63.90
65582;DHT22;52231;40.090;18.348;2023-12-07T09:39:40;14.50;63.10
65582;DHT22;52231;40.090;18.348;2023-12-07T09:42:08;14.40;64.00
65582;DHT22;52231;40.090;18.348;2023-12-07T09:44:37;14.60;63.60
65582;DHT22;52231;40.090;18.348;2023-12-07T09:47:06;14.80;64.30
65582;DHT22;52231;40.090;18.348;2023-12-07T09:49:34;15.00;61.60
65582;DHT22;52231;40.090;18.348;2023-12-07T09:52:03;14.90;59.40
65582;DHT22;52231;40.090;18.348;2023-12-07T09:54:32;15.00;60.90
65582;DHT22;52231;40.090;18.348;2023-12-07T09:57:01;15.20;59.90
65582;DHT22;52231;40.090;18.348;2023-12-07T09:59:29;15.10;60.00
65582;DHT22;52231;40.090;18.348;2023-12-07T10:01:57;15.10;59.90
65582;DHT22;52231;40.090;18.348;2023-12-07T10:04:26;15.20;60.00
65582;DHT22;52231;40.090;18.348;2023-12-07T10:06:56;15.30;59.90
65582;DHT22;52231;40.090;18.348;2023-12-07T10:09:24;15.40;59.40
65582;DHT22;52231;40.090;18.348;2023-12-07T10:12:04;15.40;59.40
65582;DHT22;52231;40.090;18.348;2023-12-07T10:14:33;15.50;59.60
65582;DHT22;52231;40.090;18.348;2023-12-07T10:17:01;15.40;58.80
65582;DHT22;52231;40.090;18.348;2023-12-07T10:19:29;15.40;59.10
65582;DHT22;52231;40.090;18.348;2023-12-07T10:21:59;15.40;58.00
65582;DHT22;52231;40.090;18.348;2023-12-07T10:24:27;15.50;58.40
65582;DHT22;52231;40.090;18.348;2023-12-07T10:26:56;15.60;58.20
65582;DHT22;52231;40.090;18.348;2023-12-07T10:29:28;15.60;57.90
65582;DHT22;52231;40.090;18.348;2023-12-07T10:32:02;15.70;57.40
65582;DHT22;52231;40.090;18.348;2023-12-07T10:34:32;15.70;57.90
65582;DHT22;52231;40.090;18.348;2023-12-07T10:37:04;15.80;58.70
65582;DHT22;52231;40.090;18.348;2023-12-07T10:39:32;15.90;59.10
65582;DHT22;52231;40.090;18.348;2023-12-07T10:42:02;16.10;58.60
65582;DHT22;52231;40.090;18.348;2023-12-07T10:44:34;16.00;57.90
65582;DHT22;52231;40.090;18.348;2023-12-07T10:47:03;15.90;57.00
65582;DHT22;52231;40.090;18.348;2023-12-07T10:49:31;15.90;57.40
65582;DHT22;52231;40.090;18.348;2023-12-07T10:52:06;15.90;58.10
65582;DHT22;52231;40.090;18.348;2023-12-07T10:57:24;16.10;56.90
65582;DHT22;52231;40.090;18.348;2023-12-07T10:59:54;16.00;56.20
65582;DHT22;52231;40.090;18.348;2023-12-07T11:02:24;15.90;55.80
65582;DHT22;52231;40.090;18.348;2023-12-07T11:04:56;15.90;55.50
65582;DHT22;52231;40.090;18.348;2023-12-07T11:07:33;16.10;56.20
65582;DHT22;52231;40.090;18.348;2023-12-07T11:10:16;16.20;55.70
65582;DHT22;52231;40.090;18.348;2023-12-07T11:13:10;16.10;54.90
65582;DHT22;52231;40.090;18.348;2023-12-07T11:15:58;16.20;55.50
65582;DHT22;52231;40.090;18.348;2023-12-07T11:18:27;16.20;54.90
65582;DHT22;52231;40.090;18.348;2023-12-07T11:20:56;16.30;55.80
65582;DHT22;52231;40.090;18.348;2023-12-07T11:23:27;15.90;55.60
65582;DHT22;52231;40.090;18.348;2023-12-07T11:25:56;16.00;56.70
65582;DHT22;52231;40.090;18.348;2023-12-07T11:28:38;16.20;56.20
65582;DHT22;52231;40.090;18.348;2023-12-07T11:31:07;16.30;55.60
65582;DHT22;52231;40.090;18.348;2023-12-07T11:33:39;16.40;54.70
65582;DHT22;52231;40.090;18.348;2023-12-07T11:36:09;16.60;52.70
65582;DHT22;52231;40.090;18.348;2023-12-07T11:38:55;16.90;52.00
65582;DHT22;52231;40.090;18.348;2023-12-07T11:41:30;17.20;52.40
65582;DHT22;52231;40.090;18.348;2023-12-07T11:43:59;17.50;52.20
65582;DHT22;52231;40.090;18.348;2023-12-07T11:46:28;17.70;52.00
65582;DHT22;52231;40.090;18.348;2023-12-07T11:48:56;17.70;52.10
65582;DHT22;52231;40.090;18.348;2023-12-07T11:51:25;17.30;52.90
65582;DHT22;52231;40.090;18.348;2023-12-07T11:53:54;17.00;54.00
65582;DHT22;52231;40.090;18.348;2023-12-07T11:56:22;16.30;55.20
65582;DHT22;52231;40.090;18.348;2023-12-07T11:58:51;15.80;57.10
65582;DHT22;52231;40.090;18.348;2023-12-07T12:01:21;15.30;56.90
65582;DHT22;52231;40.090;18.348;2023-12-07T12:03:49;15.20;58.20
65582;DHT22;52231;40.090;18.348;2023-12-07T12:06:17;14.90;58.90
65582;DHT22;52231;40.090;18.348;2023-12-07T12:08:46;14.80;59.80
65582;DHT22;52231;40.090;18.348;2023-12-07T12:11:14;15.00;60.70
65582;DHT22;52231;40.090;18.348;2023-12-07T12:13:42;15.60;60.20
65582;DHT22;52231;40.090;18.348;2023-12-07T12:16:13;16.20;58.20
65582;DHT22;52231;40.090;18.348;2023-12-07T12:18:42;16.80;56.80
65582;DHT22;52231;40.090;18.348;2023-12-07T12:21:10;17.30;54.20
65582;DHT22;52231;40.090;18.348;2023-12-07T12:23:38;17.80;53.10
65582;DHT22;52231;40.090;18.348;2023-12-07T12:26:08;18.10;50.20
65582;DHT22;52231;40.090;18.348;2023-12-07T12:28:38;17.90;50.80
65582;DHT22;52231;40.090;18.348;2023-12-07T12:31:11;17.90;51.80
65582;DHT22;52231;40.090;18.348;2023-12-07T12:33:39;17.80;51.80
65582;DHT22;52231;40.090;18.348;2023-12-07T12:36:08;17.20;51.00
65582;DHT22;52231;40.090;18.348;2023-12-07T12:38:38;16.40;51.30
65582;DHT22;52231;40.090;18.348;2023-12-07T12:41:08;15.70;52.80
65582;DHT22;52231;40.090;18.348;2023-12-07T12:43:37;15.50;54.50
65582;DHT22;52231;40.090;18.348;2023-12-07T12:46:05;15.30;55.70
65582;DHT22;52231;40.090;18.348;2023-12-07T12:48:34;15.10;56.50
65582;DHT22;52231;40.090;18.348;2023-12-07T12:51:12;15.10;56.60
65582;DHT22;52231;40.090;18.348;2023-12-07T12:53:47;15.30;57.50
65582;DHT22;52231;40.090;18.348;2023-12-07T12:56:16;15.30;57.40
65582;DHT22;52231;40.090;18.348;2023-12-07T12:58:46;15.50;57.60
65582;DHT22;52231;40.090;18.348;2023-12-07T13:01:15;15.40;57.70
65582;DHT22;52231;40.090;18.348;2023-12-07T13:03:45;15.30;58.20
65582;DHT22;52231;40.090;18.348;2023-12-07T13:06:15;15.10;59.10
65582;DHT22;52231;40.090;18.348;2023-12-07T13:08:44;14.80;59.80
65582;DHT22;52231;40.090;18.348;2023-12-07T13:11:17;14.40;60.80
65582;DHT22;52231;40.090;18.348;2023-12-07T13:13:46;14.10;62.00
65582;DHT22;52231;40.090;18.348;2023-12-07T13:16:17;13.80;63.30
65582;DHT22;52231;40.090;18.348;2023-12-07T13:18:46;13.60;63.30
65582;DHT22;52231;40.090;18.348;2023-12-07T13:21:17;13.40;64.90
65582;DHT22;52231;40.090;18.348;2023-12-07T13:23:49;13.30;65.30
65582;DHT22;52231;40.090;18.348;2023-12-07T13:26:18;13.30;65.70
65582;DHT22;52231;40.090;18.348;2023-12-07T13:28:47;13.30;65.90
65582;DHT22;52231;40.090;18.348;2023-12-07T13:31:15;13.50;65.80
65582;DHT22;52231;40.090;18.348;2023-12-07T13:33:44;13.70;65.20
65582;DHT22;52231;40.090;18.348;2023-12-07T13:36:13;13.70;65.10
65582;DHT22;52231;40.090;18.348;2023-12-07T13:38:41;13.60;65.20
65582;DHT22;52231;40.090;18.348;2023-12-07T13:41:09;13.50;65.60
65582;DHT22;52231;40.090;18.348;2023-12-07T13:43:37;13.30;65.40
65582;DHT22;52231;40.090;18.348;2023-12-07T13:46:08;13.20;66.00
65582;DHT22;52231;40.090;18.348;2023-12-07T13:48:37;13.00;66.70
65582;DHT22;52231;40.090;18.348;2023-12-07T13:51:06;12.90;67.10
65582;DHT22;52231;40.090;18.348;2023-12-07T13:53:34;12.90;67.40
65582;DHT22;52231;40.090;18.348;2023-12-07T13:56:02;12.90;68.00
65582;DHT22;52231;40.090;18.348;2023-12-07T13:58:32;13.10;67.90
65582;DHT22;52231;40.090;18.348;2023-12-07T14:01:00;13.30;67.40
65582;DHT22;52231;40.090;18.348;2023-12-07T14:03:29;13.50;67.30
65582;DHT22;52231;40.090;18.348;2023-12-07T14:05:57;13.70;67.00
65582;DHT22;52231;40.090;18.348;2023-12-07T14:08:25;13.70;66.80
65582;DHT22;52231;40.090;18.348;2023-12-07T14:10:53;13.40;67.20
65582;DHT22;52231;40.090;18.348;2023-12-07T14:13:22;13.00;68.10
65582;DHT22;52231;40.090;18.348;2023-12-07T14:15:52;12.90;69.00
65582;DHT22;52231;40.090;18.348;2023-12-07T14:18:24;12.80;69.70
65582;DHT22;52231;40.090;18.348;2023-12-07T14:20:52;12.80;70.10
65582;DHT22;52231;40.090;18.348;2023-12-07T14:23:21;12.70;70.50
65582;DHT22;52231;40.090;18.348;2023-12-07T14:25:51;12.70;70.80
65582;DHT22;52231;40.090;18.348;2023-12-07T14:28:19;12.60;71.10
65582;DHT22;52231;40.090;18.348;2023-12-07T14:30:47;12.40;71.20
65582;DHT22;52231;40.090;18.348;2023-12-07T14:33:15;12.40;71.50
65582;DHT22;52231;40.090;18.348;2023-12-07T14:35:43;12.40;71.90
65582;DHT22;52231;40.090;18.348;2023-12-07T14:38:12;12.30;72.20
65582;DHT22;52231;40.090;18.348;2023-12-07T14:40:41;12.40;72.50
65582;DHT22;52231;40.090;18.348;2023-12-07T14:43:10;12.50;72.60
65582;DHT22;52231;40.090;18.348;2023-12-07T14:45:38;12.70;72.30
65582;DHT22;52231;40.090;18.348;2023-12-07T14:48:06;12.80;72.10
65582;DHT22;52231;40.090;18.348;2023-12-07T14:50:35;12.70;71.60
65582;DHT22;52231;40.090;18.348;2023-12-07T14:53:04;12.00;73.90
65582;DHT22;52231;40.090;18.348;2023-12-07T14:55:32;11.20;75.40
65582;DHT22;52231;40.090;18.348;2023-12-07T14:58:02;10.70;78.20
65582;DHT22;52231;40.090;18.348;2023-12-07T15:00:32;10.50;80.00
65582;DHT22;52231;40.090;18.348;2023-12-07T15:03:01;10.40;81.20
65582;DHT22;52231;40.090;18.348;2023-12-07T15:05:29;10.30;81.50
65582;DHT22;52231;40.090;18.348;2023-12-07T15:07:57;10.00;82.30
65582;DHT22;52231;40.090;18.348;2023-12-07T15:10:25;9.90;82.60
65582;DHT22;52231;40.090;18.348;2023-12-07T15:12:53;9.70;83.50
65582;DHT22;52231;40.090;18.348;2023-12-07T15:15:22;9.80;84.20
65582;DHT22;52231;40.090;18.348;2023-12-07T15:17:51;9.70;84.80
65582;DHT22;52231;40.090;18.348;2023-12-07T15:20:20;9.60;85.20
65582;DHT22;52231;40.090;18.348;2023-12-07T15:22:48;9.50;85.10
65582;DHT22;52231;40.090;18.348;2023-12-07T15:25:16;9.40;84.90
65582;DHT22;52231;40.090;18.348;2023-12-07T15:27:45;9.30;84.70
65582;DHT22;52231;40.090;18.348;2023-12-07T15:30:15;9.30;84.30
65582;DHT22;52231;40.090;18.348;2023-12-07T15:32:43;9.20;84.10
65582;DHT22;52231;40.090;18.348;2023-12-07T15:35:11;9.20;83.70
65582;DHT22;52231;40.090;18.348;2023-12-07T15:37:39;9.00;83.20
65582;DHT22;52231;40.090;18.348;2023-12-07T15:40:08;9.10;83.30
65582;DHT22;52231;40.090;18.348;2023-12-07T15:42:38;9.10;83.30
65582;DHT22;52231;40.090;18.348;2023-12-07T15:45:07;9.10;82.80